sensor_id;sensor_type;location;lat;lon;timestamp;pressure;altitude;pressure_sealevel;temperature;humidity
34566;BME280;20803;42.676;26.348;2022-09-17T00:00:37;97759.63;;;22.39;73.71
34566;BME280;20803;42.676;26.348;2022-09-17T00:03:03;97752.69;;;22.40;73.67
34566;BME280;20803;42.676;26.348;2022-09-17T00:05:29;97750.16;;;22.20;75.28
34566;BME280;20803;42.676;26.348;2022-09-17T00:07:55;97746.28;;;22.12;75.50
34566;BME280;20803;42.676;26.348;2022-09-17T00:10:20;97745.00;;;22.18;75.16
34566;BME280;20803;42.676;26.348;2022-09-17T00:12:47;97751.44;;;22.19;75.45
34566;BME280;20803;42.676;26.348;2022-09-17T00:15:13;97755.28;;;21.99;77.62
34566;BME280;20803;42.676;26.348;2022-09-17T00:17:38;97762.94;;;21.93;77.90
34566;BME280;20803;42.676;26.348;2022-09-17T00:20:05;97757.28;;;21.93;77.73
34566;BME280;20803;42.676;26.348;2022-09-17T00:22:34;97750.34;;;21.94;77.85
34566;BME280;20803;42.676;26.348;2022-09-17T00:24:59;97751.88;;;21.90;78.20
34566;BME280;20803;42.676;26.348;2022-09-17T00:27:25;97754.47;;;21.88;78.60
34566;BME280;20803;42.676;26.348;2022-09-17T00:29:50;97758.31;;;21.90;78.87
34566;BME280;20803;42.676;26.348;2022-09-17T00:32:15;97759.06;;;21.91;78.75
34566;BME280;20803;42.676;26.348;2022-09-17T00:34:42;97766.78;;;21.90;79.14
34566;BME280;20803;42.676;26.348;2022-09-17T00:37:07;97764.50;;;21.94;79.26
34566;BME280;20803;42.676;26.348;2022-09-17T00:39:33;97760.63;;;21.92;80.16
34566;BME280;20803;42.676;26.348;2022-09-17T00:41:58;97761.16;;;21.96;79.73
34566;BME280;20803;42.676;26.348;2022-09-17T00:47:24;97763.25;;;22.01;79.80
34566;BME280;20803;42.676;26.348;2022-09-17T00:49:58;97756.56;;;22.04;79.81
34566;BME280;20803;42.676;26.348;2022-09-17T00:52:29;97753.47;;;22.13;79.09
34566;BME280;20803;42.676;26.348;2022-09-17T00:55:11;97752.19;;;22.19;79.12
34566;BME280;20803;42.676;26.348;2022-09-17T00:57:38;97740.34;;;22.32;78.24
34566;BME280;20803;42.676;26.348;2022-09-17T01:00:05;97739.06;;;22.44;76.90
34566;BME280;20803;42.676;26.348;2022-09-17T01:02:33;97729.25;;;22.51;76.79
34566;BME280;20803;42.676;26.348;2022-09-17T01:04:58;97731.56;;;22.58;76.57
34566;BME280;20803;42.676;26.348;2022-09-17T01:07:34;97731.31;;;22.61;76.35
34566;BME280;20803;42.676;26.348;2022-09-17T01:10:28;97716.88;;;22.65;76.01
34566;BME280;20803;42.676;26.348;2022-09-17T01:24:27;97711.47;;;22.61;77.00
34566;BME280;20803;42.676;26.348;2022-09-17T01:30:13;97708.88;;;22.80;76.68
34566;BME280;20803;42.676;26.348;2022-09-17T01:38:18;97714.28;;;22.84;75.85
34566;BME280;20803;42.676;26.348;2022-09-17T01:40:49;97701.38;;;22.88;75.74
34566;BME280;20803;42.676;26.348;2022-09-17T01:43:29;97712.69;;;22.88;75.73
34566;BME280;20803;42.676;26.348;2022-09-17T01:46:13;97708.59;;;22.89;75.33
34566;BME280;20803;42.676;26.348;2022-09-17T01:48:42;97708.59;;;22.89;75.91
34566;BME280;20803;42.676;26.348;2022-09-17T01:51:15;97704.47;;;22.85;76.29
34566;BME280;20803;42.676;26.348;2022-09-17T01:54:03;97706.84;;;22.53;77.16
34566;BME280;20803;42.676;26.348;2022-09-17T01:56:37;97711.22;;;22.59;77.62
34566;BME280;20803;42.676;26.348;2022-09-17T01:59:19;97703.97;;;22.70;76.82
34566;BME280;20803;42.676;26.348;2022-09-17T02:01:50;97709.94;;;22.60;77.22
34566;BME280;20803;42.676;26.348;2022-09-17T02:04:25;97715.88;;;22.62;77.46
34566;BME280;20803;42.676;26.348;2022-09-17T02:06:57;97717.13;;;22.67;76.86
34566;BME280;20803;42.676;26.348;2022-09-17T02:09:28;97709.41;;;22.73;76.53
34566;BME280;20803;42.676;26.348;2022-09-17T02:11:57;97707.59;;;22.76;76.17
34566;BME280;20803;42.676;26.348;2022-09-17T02:14:34;97702.19;;;22.78;77.07
34566;BME280;20803;42.676;26.348;2022-09-17T02:17:07;97687.00;;;22.75;77.19
34566;BME280;20803;42.676;26.348;2022-09-17T02:19:37;97687.53;;;22.74;76.18
34566;BME280;20803;42.676;26.348;2022-09-17T02:30:02;97662.06;;;22.46;79.50
34566;BME280;20803;42.676;26.348;2022-09-17T02:32:27;97664.16;;;22.34;80.49
34566;BME280;20803;42.676;26.348;2022-09-17T02:34:53;97656.75;;;22.25;83.04
34566;BME280;20803;42.676;26.348;2022-09-17T02:37:18;97662.66;;;22.22;83.18
34566;BME280;20803;42.676;26.348;2022-09-17T02:39:44;97670.91;;;22.20;83.56
34566;BME280;20803;42.676;26.348;2022-09-17T02:45:14;97686.06;;;22.17;83.65
34566;BME280;20803;42.676;26.348;2022-09-17T02:56:13;97685.81;;;21.98;85.06
34566;BME280;20803;42.676;26.348;2022-09-17T02:58:52;97675.00;;;21.69;86.86
34566;BME280;20803;42.676;26.348;2022-09-17T03:01:41;97674.44;;;21.37;89.11
34566;BME280;20803;42.676;26.348;2022-09-17T03:04:12;97673.31;;;21.12;90.99
34566;BME280;20803;42.676;26.348;2022-09-17T03:06:41;97666.34;;;20.96;91.13
34566;BME280;20803;42.676;26.348;2022-09-17T03:09:07;97664.28;;;20.97;91.43
34566;BME280;20803;42.676;26.348;2022-09-17T03:11:32;97666.34;;;21.02;91.51
34566;BME280;20803;42.676;26.348;2022-09-17T03:13:58;97668.13;;;20.94;92.22
34566;BME280;20803;42.676;26.348;2022-09-17T03:16:24;97684.28;;;20.93;92.43
34566;BME280;20803;42.676;26.348;2022-09-17T03:18:49;97691.47;;;20.94;92.24
34566;BME280;20803;42.676;26.348;2022-09-17T03:21:14;97690.97;;;20.90;93.07
34566;BME280;20803;42.676;26.348;2022-09-17T03:23:40;97684.53;;;20.84;93.33
34566;BME280;20803;42.676;26.348;2022-09-17T03:26:05;97674.50;;;20.83;93.13
34566;BME280;20803;42.676;26.348;2022-09-17T03:28:31;97670.66;;;20.86;92.94
34566;BME280;20803;42.676;26.348;2022-09-17T03:30:56;97661.19;;;20.95;92.14
34566;BME280;20803;42.676;26.348;2022-09-17T03:33:22;97659.94;;;21.01;92.23
34566;BME280;20803;42.676;26.348;2022-09-17T03:35:47;97668.41;;;21.07;91.19
34566;BME280;20803;42.676;26.348;2022-09-17T03:38:13;97648.91;;;21.03;92.03
34566;BME280;20803;42.676;26.348;2022-09-17T03:40:38;97645.22;;;20.86;93.46
34566;BME280;20803;42.676;26.348;2022-09-17T03:43:05;97647.22;;;20.69;96.00
34566;BME280;20803;42.676;26.348;2022-09-17T03:45:31;97651.06;;;20.66;96.83
34566;BME280;20803;42.676;26.348;2022-09-17T03:47:56;97647.19;;;20.58;98.01
34566;BME280;20803;42.676;26.348;2022-09-17T03:50:25;97648.44;;;20.57;98.69
34566;BME280;20803;42.676;26.348;2022-09-17T03:52:50;97655.16;;;20.59;98.70
34566;BME280;20803;42.676;26.348;2022-09-17T03:55:16;97640.25;;;20.59;99.20
34566;BME280;20803;42.676;26.348;2022-09-17T03:57:42;97646.88;;;20.50;100.00
34566;BME280;20803;42.676;26.348;2022-09-17T04:00:08;97650.72;;;20.47;100.00
34566;BME280;20803;42.676;26.348;2022-09-17T04:02:34;97640.44;;;20.44;100.00
34566;BME280;20803;42.676;26.348;2022-09-17T04:04:59;97639.94;;;20.46;100.00
34566;BME280;20803;42.676;26.348;2022-09-17T04:07:25;97642.81;;;20.57;100.00
34566;BME280;20803;42.676;26.348;2022-09-17T04:09:50;97636.97;;;20.66;99.92
34566;BME280;20803;42.676;26.348;2022-09-17T04:12:15;97623.13;;;20.74;99.77
34566;BME280;20803;42.676;26.348;2022-09-17T04:14:41;97618.53;;;20.87;99.00
34566;BME280;20803;42.676;26.348;2022-09-17T04:17:06;97615.50;;;21.02;97.54
34566;BME280;20803;42.676;26.348;2022-09-17T04:19:32;97604.22;;;21.13;96.61
34566;BME280;20803;42.676;26.348;2022-09-17T04:21:57;97615.56;;;21.30;94.92
34566;BME280;20803;42.676;26.348;2022-09-17T04:24:23;97616.91;;;21.45;93.94
34566;BME280;20803;42.676;26.348;2022-09-17T04:26:48;97614.56;;;21.66;92.37
34566;BME280;20803;42.676;26.348;2022-09-17T04:29:13;97611.22;;;21.96;90.10
34566;BME280;20803;42.676;26.348;2022-09-17T04:31:39;97597.78;;;22.35;87.02
34566;BME280;20803;42.676;26.348;2022-09-17T04:34:05;97595.81;;;22.71;84.39
34566;BME280;20803;42.676;26.348;2022-09-17T04:36:30;97593.84;;;23.07;80.56
34566;BME280;20803;42.676;26.348;2022-09-17T04:38:56;97590.81;;;23.40;77.57
34566;BME280;20803;42.676;26.348;2022-09-17T04:41:21;97585.75;;;23.63;75.11
34566;BME280;20803;42.676;26.348;2022-09-17T04:43:46;97583.41;;;23.92;72.69
34566;BME280;20803;42.676;26.348;2022-09-17T04:46:12;97587.09;;;24.11;71.04
34566;BME280;20803;42.676;26.348;2022-09-17T04:48:38;97589.63;;;24.44;69.45
34566;BME280;20803;42.676;26.348;2022-09-17T04:51:04;97578.50;;;24.84;66.31
34566;BME280;20803;42.676;26.348;2022-09-17T04:53:29;97586.13;;;25.13;64.32
34566;BME280;20803;42.676;26.348;2022-09-17T04:55:55;97584.94;;;25.59;61.74
34566;BME280;20803;42.676;26.348;2022-09-17T04:58:20;97579.88;;;25.84;60.56
34566;BME280;20803;42.676;26.348;2022-09-17T05:00:46;97580.13;;;26.12;58.05
34566;BME280;20803;42.676;26.348;2022-09-17T05:03:11;97588.38;;;26.42;57.54
34566;BME280;20803;42.676;26.348;2022-09-17T05:05:36;97582.13;;;26.70;56.00
34566;BME280;20803;42.676;26.348;2022-09-17T05:08:02;97580.69;;;26.77;55.71
34566;BME280;20803;42.676;26.348;2022-09-17T05:10:28;97581.88;;;26.81;55.42
34566;BME280;20803;42.676;26.348;2022-09-17T05:12:54;97586.88;;;27.15;53.68
34566;BME280;20803;42.676;26.348;2022-09-17T05:15:22;97591.78;;;27.61;53.38
34566;BME280;20803;42.676;26.348;2022-09-17T05:17:48;97591.97;;;28.05;52.13
34566;BME280;20803;42.676;26.348;2022-09-17T05:20:14;97592.09;;;28.48;50.66
34566;BME280;20803;42.676;26.348;2022-09-17T05:22:48;97587.94;;;28.85;48.47
34566;BME280;20803;42.676;26.348;2022-09-17T05:25:15;97594.72;;;29.11;48.21
34566;BME280;20803;42.676;26.348;2022-09-17T05:27:41;97605.28;;;29.23;47.54
34566;BME280;20803;42.676;26.348;2022-09-17T05:30:08;97622.88;;;29.35;47.66
34566;BME280;20803;42.676;26.348;2022-09-17T05:32:34;97622.63;;;29.18;47.61
34566;BME280;20803;42.676;26.348;2022-09-17T05:35:01;97620.00;;;29.27;47.89
34566;BME280;20803;42.676;26.348;2022-09-17T05:37:26;97628.19;;;29.31;46.27
34566;BME280;20803;42.676;26.348;2022-09-17T05:39:52;97621.31;;;29.26;46.04
34566;BME280;20803;42.676;26.348;2022-09-17T05:42:17;97628.06;;;29.36;45.37
34566;BME280;20803;42.676;26.348;2022-09-17T05:44:43;97620.22;;;29.37;45.50
34566;BME280;20803;42.676;26.348;2022-09-17T05:47:08;97618.16;;;29.45;45.94
34566;BME280;20803;42.676;26.348;2022-09-17T05:49:34;97619.50;;;29.59;45.54
34566;BME280;20803;42.676;26.348;2022-09-17T05:51:59;97610.97;;;29.82;44.73
34566;BME280;20803;42.676;26.348;2022-09-17T05:54:24;97596.81;;;29.76;44.87
34566;BME280;20803;42.676;26.348;2022-09-17T05:56:53;97601.78;;;29.68;45.36
34566;BME280;20803;42.676;26.348;2022-09-17T05:59:19;97613.63;;;29.80;44.93
34566;BME280;20803;42.676;26.348;2022-09-17T06:01:45;97611.97;;;29.92;44.87
34566;BME280;20803;42.676;26.348;2022-09-17T06:04:11;97624.13;;;29.70;44.90
34566;BME280;20803;42.676;26.348;2022-09-17T06:06:37;97621.19;;;29.47;45.74
34566;BME280;20803;42.676;26.348;2022-09-17T06:09:04;97623.03;;;29.29;45.73
34566;BME280;20803;42.676;26.348;2022-09-17T06:11:30;97630.16;;;29.00;46.56
34566;BME280;20803;42.676;26.348;2022-09-17T06:13:56;97629.59;;;28.73;47.38
34566;BME280;20803;42.676;26.348;2022-09-17T06:16:22;97632.50;;;28.45;47.97
34566;BME280;20803;42.676;26.348;2022-09-17T06:18:48;97620.53;;;28.25;48.19
34566;BME280;20803;42.676;26.348;2022-09-17T06:21:14;97609.81;;;28.18;48.74
34566;BME280;20803;42.676;26.348;2022-09-17T06:23:41;97600.75;;;28.28;48.66
34566;BME280;20803;42.676;26.348;2022-09-17T06:26:08;97602.19;;;28.42;48.56
34566;BME280;20803;42.676;26.348;2022-09-17T06:28:33;97601.34;;;28.34;48.59
34566;BME280;20803;42.676;26.348;2022-09-17T06:31:00;97597.38;;;28.37;48.96
34566;BME280;20803;42.676;26.348;2022-09-17T06:33:26;97592.00;;;28.33;49.89
34566;BME280;20803;42.676;26.348;2022-09-17T06:35:58;97589.25;;;28.48;49.67
34566;BME280;20803;42.676;26.348;2022-09-17T06:38:29;97585.31;;;28.31;50.60
34566;BME280;20803;42.676;26.348;2022-09-17T06:40:55;97584.56;;;28.30;51.55
34566;BME280;20803;42.676;26.348;2022-09-17T06:43:21;97586.03;;;28.52;51.54
34566;BME280;20803;42.676;26.348;2022-09-17T06:46:00;97595.50;;;28.39;51.84
34566;BME280;20803;42.676;26.348;2022-09-17T06:48:27;97588.22;;;28.10;52.75
34566;BME280;20803;42.676;26.348;2022-09-17T06:50:53;97587.66;;;28.11;53.54
34566;BME280;20803;42.676;26.348;2022-09-17T06:53:20;97592.13;;;28.77;51.13
34566;BME280;20803;42.676;26.348;2022-09-17T06:55:46;97600.00;;;28.63;51.52
34566;BME280;20803;42.676;26.348;2022-09-17T06:58:12;97606.66;;;28.58;51.41
34566;BME280;20803;42.676;26.348;2022-09-17T07:00:37;97603.63;;;28.92;51.21
34566;BME280;20803;42.676;26.348;2022-09-17T07:03:03;97607.16;;;29.13;50.20
34566;BME280;20803;42.676;26.348;2022-09-17T07:05:28;97608.72;;;29.29;49.73
34566;BME280;20803;42.676;26.348;2022-09-17T07:07:54;97610.91;;;29.44;49.28
34566;BME280;20803;42.676;26.348;2022-09-17T07:10:20;97610.22;;;29.15;49.69
34566;BME280;20803;42.676;26.348;2022-09-17T07:12:47;97615.78;;;29.28;49.13
34566;BME280;20803;42.676;26.348;2022-09-17T07:15:13;97625.84;;;29.73;48.41
34566;BME280;20803;42.676;26.348;2022-09-17T07:17:40;97620.09;;;29.65;48.23
34566;BME280;20803;42.676;26.348;2022-09-17T07:20:07;97615.94;;;29.89;48.22
34566;BME280;20803;42.676;26.348;2022-09-17T07:22:33;97624.34;;;29.79;47.75
34566;BME280;20803;42.676;26.348;2022-09-17T07:24:59;97631.25;;;29.92;47.12
34566;BME280;20803;42.676;26.348;2022-09-17T07:27:29;97632.34;;;29.73;48.19
34566;BME280;20803;42.676;26.348;2022-09-17T07:29:55;97624.56;;;30.19;47.08
34566;BME280;20803;42.676;26.348;2022-09-17T07:32:21;97637.56;;;30.20;45.83
34566;BME280;20803;42.676;26.348;2022-09-17T07:34:47;97650.28;;;29.74;46.71
34566;BME280;20803;42.676;26.348;2022-09-17T07:37:14;97648.81;;;29.96;46.81
34566;BME280;20803;42.676;26.348;2022-09-17T07:39:40;97649.22;;;30.15;46.63
34566;BME280;20803;42.676;26.348;2022-09-17T07:42:05;97649.41;;;30.40;44.88
34566;BME280;20803;42.676;26.348;2022-09-17T07:44:31;97645.41;;;30.35;45.19
34566;BME280;20803;42.676;26.348;2022-09-17T07:46:56;97654.56;;;30.41;44.91
34566;BME280;20803;42.676;26.348;2022-09-17T07:49:22;97651.72;;;30.41;44.92
34566;BME280;20803;42.676;26.348;2022-09-17T07:51:47;97641.28;;;30.99;43.71
34566;BME280;20803;42.676;26.348;2022-09-17T07:54:13;97633.41;;;31.22;42.92
34566;BME280;20803;42.676;26.348;2022-09-17T07:56:38;97635.53;;;30.99;43.70
34566;BME280;20803;42.676;26.348;2022-09-17T07:59:04;97637.47;;;31.52;42.05
34566;BME280;20803;42.676;26.348;2022-09-17T08:01:31;97644.69;;;31.60;42.14
34566;BME280;20803;42.676;26.348;2022-09-17T08:03:58;97640.91;;;31.02;43.12
34566;BME280;20803;42.676;26.348;2022-09-17T08:06:25;97628.53;;;31.40;43.06
34566;BME280;20803;42.676;26.348;2022-09-17T08:08:53;97615.72;;;31.98;42.24
34566;BME280;20803;42.676;26.348;2022-09-17T08:11:20;97621.53;;;31.91;41.64
34566;BME280;20803;42.676;26.348;2022-09-17T08:13:47;97625.38;;;31.13;43.14
34566;BME280;20803;42.676;26.348;2022-09-17T08:16:13;97618.75;;;30.88;43.93
34566;BME280;20803;42.676;26.348;2022-09-17T08:18:40;97610.91;;;31.36;42.51
34566;BME280;20803;42.676;26.348;2022-09-17T08:21:06;97619.69;;;31.78;41.73
34566;BME280;20803;42.676;26.348;2022-09-17T08:23:36;97611.09;;;31.38;42.43
34566;BME280;20803;42.676;26.348;2022-09-17T08:26:03;97598.34;;;31.64;42.09
34566;BME280;20803;42.676;26.348;2022-09-17T08:28:30;97590.38;;;31.07;42.08
34566;BME280;20803;42.676;26.348;2022-09-17T08:31:05;97581.91;;;31.57;41.94
34566;BME280;20803;42.676;26.348;2022-09-17T08:33:37;97573.94;;;31.72;41.56
34566;BME280;20803;42.676;26.348;2022-09-17T08:36:03;97567.84;;;30.96;42.92
34566;BME280;20803;42.676;26.348;2022-09-17T08:38:31;97562.00;;;30.71;43.27
34566;BME280;20803;42.676;26.348;2022-09-17T08:43:48;97555.56;;;30.33;43.85
34566;BME280;20803;42.676;26.348;2022-09-17T08:46:15;97558.03;;;30.44;44.23
34566;BME280;20803;42.676;26.348;2022-09-17T08:48:44;97559.91;;;30.64;44.00
34566;BME280;20803;42.676;26.348;2022-09-17T08:51:57;97564.88;;;31.19;42.67
34566;BME280;20803;42.676;26.348;2022-09-17T08:54:41;97574.81;;;31.58;41.89
34566;BME280;20803;42.676;26.348;2022-09-17T08:59:42;97587.22;;;31.68;42.38
34566;BME280;20803;42.676;26.348;2022-09-17T09:07:24;97594.03;;;31.08;42.93
34566;BME280;20803;42.676;26.348;2022-09-17T09:12:31;97573.38;;;31.09;43.19
34566;BME280;20803;42.676;26.348;2022-09-17T09:17:43;97565.28;;;31.15;42.84
34566;BME280;20803;42.676;26.348;2022-09-17T09:20:22;97559.84;;;31.34;42.45
34566;BME280;20803;42.676;26.348;2022-09-17T09:22:54;97560.38;;;31.40;42.44
34566;BME280;20803;42.676;26.348;2022-09-17T09:25:22;97554.25;;;31.69;41.66
34566;BME280;20803;42.676;26.348;2022-09-17T09:28:13;97543.03;;;31.23;44.25
34566;BME280;20803;42.676;26.348;2022-09-17T09:33:42;97523.44;;;30.42;44.34
34566;BME280;20803;42.676;26.348;2022-09-17T09:36:14;97519.81;;;30.96;44.10
34566;BME280;20803;42.676;26.348;2022-09-17T09:39:06;97520.69;;;31.47;41.99
34566;BME280;20803;42.676;26.348;2022-09-17T09:44:11;97523.41;;;31.69;43.14
34566;BME280;20803;42.676;26.348;2022-09-17T09:52:41;97512.09;;;31.47;42.42
34566;BME280;20803;42.676;26.348;2022-09-17T09:55:56;97518.19;;;31.18;43.33
34566;BME280;20803;42.676;26.348;2022-09-17T10:01:01;97520.59;;;30.97;43.61
34566;BME280;20803;42.676;26.348;2022-09-17T10:03:31;97509.31;;;30.91;43.42
34566;BME280;20803;42.676;26.348;2022-09-17T10:06:09;97507.72;;;31.38;43.34
34566;BME280;20803;42.676;26.348;2022-09-17T10:08:38;97506.97;;;31.37;42.73
34566;BME280;20803;42.676;26.348;2022-09-17T10:11:15;97508.53;;;31.31;42.83
34566;BME280;20803;42.676;26.348;2022-09-17T10:13:44;97503.38;;;31.29;43.41
34566;BME280;20803;42.676;26.348;2022-09-17T10:16:17;97504.50;;;30.94;43.99
34566;BME280;20803;42.676;26.348;2022-09-17T10:18:43;97496.59;;;30.70;43.29
34566;BME280;20803;42.676;26.348;2022-09-17T10:21:22;97483.09;;;30.40;44.39
34566;BME280;20803;42.676;26.348;2022-09-17T10:23:54;97480.84;;;30.86;44.06
34566;BME280;20803;42.676;26.348;2022-09-17T10:26:26;97483.63;;;31.01;43.30
34566;BME280;20803;42.676;26.348;2022-09-17T10:29:01;97467.25;;;30.86;43.65
34566;BME280;20803;42.676;26.348;2022-09-17T10:31:45;97473.78;;;31.19;42.29
34566;BME280;20803;42.676;26.348;2022-09-17T10:34:18;97460.72;;;31.75;40.97
34566;BME280;20803;42.676;26.348;2022-09-17T10:36:45;97472.00;;;31.98;40.69
34566;BME280;20803;42.676;26.348;2022-09-17T10:39:18;97466.78;;;32.04;40.44
34566;BME280;20803;42.676;26.348;2022-09-17T10:41:54;97458.91;;;32.05;40.87
34566;BME280;20803;42.676;26.348;2022-09-17T10:44:22;97458.69;;;32.45;41.17
34566;BME280;20803;42.676;26.348;2022-09-17T10:46:50;97443.97;;;32.41;39.96
34566;BME280;20803;42.676;26.348;2022-09-17T10:51:47;97438.81;;;31.63;41.55
34566;BME280;20803;42.676;26.348;2022-09-17T11:00:14;97431.75;;;31.81;40.46
34566;BME280;20803;42.676;26.348;2022-09-17T11:09:37;97436.13;;;33.85;36.35
34566;BME280;20803;42.676;26.348;2022-09-17T11:12:26;97401.19;;;32.72;38.46
34566;BME280;20803;42.676;26.348;2022-09-17T11:26:38;97414.44;;;33.94;36.07
34566;BME280;20803;42.676;26.348;2022-09-17T11:29:29;97423.59;;;33.63;37.47
34566;BME280;20803;42.676;26.348;2022-09-17T11:34:51;97414.94;;;34.38;35.29
34566;BME280;20803;42.676;26.348;2022-09-17T11:37:37;97405.31;;;33.32;37.62
34566;BME280;20803;42.676;26.348;2022-09-17T11:40:16;97402.78;;;34.20;36.04
34566;BME280;20803;42.676;26.348;2022-09-17T11:43:06;97401.19;;;34.87;34.62
34566;BME280;20803;42.676;26.348;2022-09-17T11:45:40;97403.81;;;34.73;34.24
34566;BME280;20803;42.676;26.348;2022-09-17T11:48:16;97403.19;;;33.98;35.87
34566;BME280;20803;42.676;26.348;2022-09-17T11:50:54;97396.25;;;33.09;37.72
34566;BME280;20803;42.676;26.348;2022-09-17T11:55:58;97391.25;;;33.46;36.31
34566;BME280;20803;42.676;26.348;2022-09-17T11:58:34;97395.59;;;33.37;36.92
34566;BME280;20803;42.676;26.348;2022-09-17T12:01:08;97409.09;;;33.34;36.29
34566;BME280;20803;42.676;26.348;2022-09-17T12:03:40;97391.91;;;33.17;36.78
34566;BME280;20803;42.676;26.348;2022-09-17T12:06:20;97365.53;;;32.84;37.55
34566;BME280;20803;42.676;26.348;2022-09-17T12:08:56;97357.25;;;32.44;38.49
34566;BME280;20803;42.676;26.348;2022-09-17T12:12:00;97361.38;;;32.68;38.30
34566;BME280;20803;42.676;26.348;2022-09-17T12:14:45;97366.50;;;32.96;37.98
34566;BME280;20803;42.676;26.348;2022-09-17T12:17:22;97364.56;;;33.09;37.77
34566;BME280;20803;42.676;26.348;2022-09-17T12:19:59;97367.69;;;32.93;38.55
34566;BME280;20803;42.676;26.348;2022-09-17T12:22:30;97375.16;;;32.26;39.29
34566;BME280;20803;42.676;26.348;2022-09-17T12:24:59;97378.97;;;31.52;40.86
34566;BME280;20803;42.676;26.348;2022-09-17T12:30:19;97378.97;;;31.02;41.54
34566;BME280;20803;42.676;26.348;2022-09-17T12:38:32;97439.78;;;30.20;46.11
34566;BME280;20803;42.676;26.348;2022-09-17T12:41:25;97483.03;;;28.73;47.91
34566;BME280;20803;42.676;26.348;2022-09-17T12:57:41;97613.53;;;20.49;100.00
34566;BME280;20803;42.676;26.348;2022-09-17T13:00:13;97564.41;;;20.30;100.00
34566;BME280;20803;42.676;26.348;2022-09-17T13:02:47;97519.09;;;20.55;100.00
34566;BME280;20803;42.676;26.348;2022-09-17T13:16:02;97377.72;;;23.06;100.00
34566;BME280;20803;42.676;26.348;2022-09-17T13:21:15;97332.94;;;23.91;100.00
34566;BME280;20803;42.676;26.348;2022-09-17T13:23:46;97331.19;;;24.07;95.44
34566;BME280;20803;42.676;26.348;2022-09-17T13:26:15;97330.94;;;24.05;96.84
34566;BME280;20803;42.676;26.348;2022-09-17T13:28:48;97346.16;;;24.26;94.67
34566;BME280;20803;42.676;26.348;2022-09-17T13:34:27;97340.28;;;25.01;100.00
34566;BME280;20803;42.676;26.348;2022-09-17T13:36:56;97336.38;;;25.17;100.00
34566;BME280;20803;42.676;26.348;2022-09-17T13:45:06;97319.19;;;25.89;84.53
34566;BME280;20803;42.676;26.348;2022-09-17T13:47:37;97310.41;;;25.86;88.99
34566;BME280;20803;42.676;26.348;2022-09-17T13:50:06;97308.63;;;25.36;87.08
34566;BME280;20803;42.676;26.348;2022-09-17T13:52:43;97316.59;;;25.51;93.39
34566;BME280;20803;42.676;26.348;2022-09-17T13:57:59;97308.72;;;25.70;84.01
34566;BME280;20803;42.676;26.348;2022-09-17T14:13:52;97329.25;;;26.03;83.63
34566;BME280;20803;42.676;26.348;2022-09-17T14:22:12;97342.44;;;26.27;77.29
34566;BME280;20803;42.676;26.348;2022-09-17T14:27:28;97352.28;;;26.59;74.26
34566;BME280;20803;42.676;26.348;2022-09-17T14:30:16;97344.41;;;26.32;82.11
34566;BME280;20803;42.676;26.348;2022-09-17T14:38:01;97338.88;;;25.86;82.14
34566;BME280;20803;42.676;26.348;2022-09-17T14:40:29;97332.06;;;26.16;77.64
34566;BME280;20803;42.676;26.348;2022-09-17T14:42:57;97344.41;;;26.32;72.22
34566;BME280;20803;42.676;26.348;2022-09-17T14:45:26;97346.97;;;26.43;68.02
34566;BME280;20803;42.676;26.348;2022-09-17T14:48:18;97352.53;;;26.48;67.02
34566;BME280;20803;42.676;26.348;2022-09-17T14:50:45;97349.13;;;26.16;71.36
34566;BME280;20803;42.676;26.348;2022-09-17T14:53:16;97343.75;;;25.78;78.56
34566;BME280;20803;42.676;26.348;2022-09-17T14:55:46;97345.25;;;25.53;79.57
34566;BME280;20803;42.676;26.348;2022-09-17T14:58:29;97349.66;;;25.67;83.40
34566;BME280;20803;42.676;26.348;2022-09-17T15:00:56;97345.41;;;25.61;80.68
34566;BME280;20803;42.676;26.348;2022-09-17T15:03:23;97351.28;;;25.23;86.77
34566;BME280;20803;42.676;26.348;2022-09-17T15:05:48;97365.16;;;25.27;89.69
34566;BME280;20803;42.676;26.348;2022-09-17T15:08:25;97369.31;;;25.13;92.61
34566;BME280;20803;42.676;26.348;2022-09-17T15:10:59;97373.28;;;24.91;96.11
34566;BME280;20803;42.676;26.348;2022-09-17T15:13:34;97377.97;;;24.88;96.35
34566;BME280;20803;42.676;26.348;2022-09-17T15:16:14;97373.34;;;24.85;95.68
34566;BME280;20803;42.676;26.348;2022-09-17T15:18:42;97383.19;;;24.84;96.09
34566;BME280;20803;42.676;26.348;2022-09-17T15:21:35;97387.72;;;24.93;95.30
34566;BME280;20803;42.676;26.348;2022-09-17T15:24:18;97377.13;;;24.93;94.09
34566;BME280;20803;42.676;26.348;2022-09-17T15:26:49;97377.44;;;24.90;94.84
34566;BME280;20803;42.676;26.348;2022-09-17T15:29:21;97386.19;;;24.92;97.38
34566;BME280;20803;42.676;26.348;2022-09-17T15:31:47;97381.88;;;24.85;98.92
34566;BME280;20803;42.676;26.348;2022-09-17T15:34:13;97393.72;;;24.71;100.00
34566;BME280;20803;42.676;26.348;2022-09-17T15:36:38;97382.56;;;24.59;100.00
34566;BME280;20803;42.676;26.348;2022-09-17T15:39:29;97387.34;;;24.51;100.00
34566;BME280;20803;42.676;26.348;2022-09-17T15:41:56;97386.72;;;24.40;100.00
34566;BME280;20803;42.676;26.348;2022-09-17T15:44:25;97385.50;;;24.35;100.00
34566;BME280;20803;42.676;26.348;2022-09-17T15:46:52;97379.66;;;24.27;100.00
34566;BME280;20803;42.676;26.348;2022-09-17T15:51:54;97386.69;;;24.27;100.00
34566;BME280;20803;42.676;26.348;2022-09-17T15:54:30;97387.41;;;24.08;100.00
34566;BME280;20803;42.676;26.348;2022-09-17T15:56:59;97386.03;;;24.15;100.00
34566;BME280;20803;42.676;26.348;2022-09-17T15:59:30;97375.66;;;24.17;100.00
34566;BME280;20803;42.676;26.348;2022-09-17T16:01:59;97370.75;;;24.18;100.00
34566;BME280;20803;42.676;26.348;2022-09-17T16:04:27;97368.75;;;24.13;100.00
34566;BME280;20803;42.676;26.348;2022-09-17T16:12:17;97374.88;;;23.98;100.00